Terminal Aerodrome Forecast
Issued by NWS Shreveport, LA

Home | Current Version | Previous Version | Text Only | Print | Product List | Glossary On
Versions: 1 2 3 4 5 6 7 8 9 10 11 12 13 14 15 16
000
FTUS44 KSHV 250521
TAFSHV
TAF
KSHV 250521Z 2506/2606 15009KT P6SM FEW080 SCT270 WS010/19025KT
     FM251000 18006KT 6SM BR BKN015
      TEMPO 2510/2513 4SM BR OVC007
     FM251500 17010G16KT P6SM SCT015 BKN100
     FM252100 18010KT P6SM VCTS SCT040CB BKN100
     FM260000 16007KT P6SM BKN250=

USA.gov is the U.S. government's official web portal to all federal, state and local government web resources and services.